Time;durP1;ratioP1;P1;durP2;ratioP2;P2;SDS_P1;SDS_P2;PMS_P1;PMS_P2;Temp;Humidity;BMP_temperature;BMP_pressure;BME280_temperature;BME280_humidity;BME280_pressure;Samples;Min_cycle;Max_cycle;Signal;HPM_P1;HPM_P2
2023/05/08 00:01:31;;;;;;;5.10;4.63;;;;;;;;;;8249587;28;20038;-72
2023/05/08 00:05:31;;;;;;;5.70;5.20;;;;;;;;;;8248042;28;20028;-72
2023/05/08 00:09:31;;;;;;;4.80;4.40;;;;;;;;;;8249469;28;20691;-72
2023/05/08 00:13:31;;;;;;;5.78;5.03;;;;;;;;;;8249184;28;20104;-72
2023/05/08 00:17:32;;;;;;;7.00;5.40;;;;;;;;;;8252034;28;20041;-72
2023/05/08 00:21:32;;;;;;;7.10;5.57;;;;;;;;;;8249652;28;20288;-72
2023/05/08 00:25:32;;;;;;;7.20;5.80;;;;;;;;;;8257325;28;20049;-72
2023/05/08 00:29:32;;;;;;;5.85;5.28;;;;;;;;;;8247186;28;20107;-71
2023/05/08 00:33:33;;;;;;;5.60;5.10;;;;;;;;;;8246633;28;20033;-71
2023/05/08 00:37:33;;;;;;;6.35;5.55;;;;;;;;;;8245903;28;20121;-71
2023/05/08 00:41:33;;;;;;;5.93;5.43;;;;;;;;;;8249193;28;20030;-71
2023/05/08 00:45:35;;;;;;;6.80;6.07;;;;;;;;;;8249567;28;20404;-72
2023/05/08 00:49:35;;;;;;;8.20;5.95;;;;;;;;;;8263234;28;20817;-72
2023/05/08 00:53:37;;;;;;;6.63;5.17;;;;;;;;;;8251229;28;20057;-71
2023/05/08 00:57:37;;;;;;;6.35;5.78;;;;;;;;;;8249376;28;20240;-71
2023/05/08 01:01:38;;;;;;;11.20;5.45;;;;;;;;;;8255652;28;20096;-71
2023/05/08 01:05:39;;;;;;;8.00;6.13;;;;;;;;;;8250640;28;20900;-71
2023/05/08 01:09:39;;;;;;;6.90;6.20;;;;;;;;;;8254147;28;20675;-71
2023/05/08 01:13:40;;;;;;;8.63;6.03;;;;;;;;;;8251044;28;20071;-71
2023/05/08 01:18:00;;;;;;;6.47;5.78;;;;;;;;;;8254471;28;20160;-71
2023/05/08 01:22:06;;;;;;;6.63;6.03;;;;;;;;;;8254111;28;20029;-71
2023/05/08 01:26:07;;;;;;;6.72;6.03;;;;;;;;;;8255851;28;20021;-71
2023/05/08 01:30:22;;;;;;;7.50;6.70;;;;;;;;;;8254178;28;20100;-71
2023/05/08 01:34:25;;;;;;;6.50;5.90;;;;;;;;;;8256224;28;20891;-71
2023/05/08 01:38:29;;;;;;;7.55;6.53;;;;;;;;;;8257549;28;20030;-70
2023/05/08 01:42:44;;;;;;;7.43;6.72;;;;;;;;;;8254371;28;20629;-71
2023/05/08 01:46:47;;;;;;;7.65;6.20;;;;;;;;;;8252164;28;20483;-71
2023/05/08 01:50:51;;;;;;;6.60;6.00;;;;;;;;;;8251235;28;20026;-71
2023/05/08 01:54:57;;;;;;;9.73;7.32;;;;;;;;;;8249117;28;20029;-71
2023/05/08 01:58:58;;;;;;;7.32;6.63;;;;;;;;;;8251550;28;20729;-71
2023/05/08 02:02:59;;;;;;;7.35;6.65;;;;;;;;;;8252634;28;20026;-71
2023/05/08 02:06:59;;;;;;;6.28;5.68;;;;;;;;;;8261861;28;20025;-71
2023/05/08 02:11:00;;;;;;;7.73;6.73;;;;;;;;;;8254116;28;20136;-70
2023/05/08 02:15:01;;;;;;;7.47;6.68;;;;;;;;;;8254221;28;20375;-71
2023/05/08 02:19:01;;;;;;;6.80;6.13;;;;;;;;;;8250825;28;20038;-71
2023/05/08 02:23:02;;;;;;;8.75;6.93;;;;;;;;;;8251699;28;20034;-71
2023/05/08 02:27:02;;;;;;;8.00;7.20;;;;;;;;;;8251705;28;20034;-71
2023/05/08 02:31:04;;;;;;;12.27;8.20;;;;;;;;;;8250118;28;20674;-71
2023/05/08 02:35:04;;;;;;;8.63;7.60;;;;;;;;;;8249895;28;20020;-71
2023/05/08 02:39:05;;;;;;;9.82;8.52;;;;;;;;;;8267816;28;20553;-71
2023/05/08 02:43:06;;;;;;;9.07;7.55;;;;;;;;;;8261673;28;20104;-71
2023/05/08 02:47:09;;;;;;;9.75;8.68;;;;;;;;;;8258286;28;20156;-71
2023/05/08 02:51:16;;;;;;;9.63;8.43;;;;;;;;;;8250542;28;20025;-71
2023/05/08 02:55:23;;;;;;;9.93;8.30;;;;;;;;;;8252686;28;20022;-71
2023/05/08 02:59:35;;;;;;;9.63;8.70;;;;;;;;;;8252177;28;20833;-71
2023/05/08 03:03:43;;;;;;;9.95;8.93;;;;;;;;;;8251184;28;20046;-72
2023/05/08 03:07:45;;;;;;;11.00;9.45;;;;;;;;;;8265193;28;20080;-71
2023/05/08 03:11:47;;;;;;;8.93;8.02;;;;;;;;;;8249173;28;20025;-72
2023/05/08 03:15:51;;;;;;;9.02;8.07;;;;;;;;;;8249170;28;20033;-72
2023/05/08 03:19:53;;;;;;;8.90;7.47;;;;;;;;;;8248540;28;20522;-72
2023/05/08 03:23:55;;;;;;;10.25;7.60;;;;;;;;;;8257420;28;20112;-71
2023/05/08 03:27:57;;;;;;;12.50;7.63;;;;;;;;;;8251352;28;20037;-72
2023/05/08 03:31:59;;;;;;;7.13;6.43;;;;;;;;;;8248061;28;20463;-72
2023/05/08 03:35:59;;;;;;;8.20;7.40;;;;;;;;;;8262733;28;20073;-72
2023/05/08 03:39:59;;;;;;;8.07;7.28;;;;;;;;;;8248295;28;20034;-71
2023/05/08 03:44:01;;;;;;;9.70;8.53;;;;;;;;;;8260843;28;20613;-72
2023/05/08 03:48:02;;;;;;;10.45;8.15;;;;;;;;;;8230582;28;20947;-72
2023/05/08 03:52:03;;;;;;;9.77;8.23;;;;;;;;;;8216088;28;20027;-73
2023/05/08 03:56:03;;;;;;;9.13;8.00;;;;;;;;;;8213482;28;20554;-72
2023/05/08 04:00:12;;;;;;;10.77;7.43;;;;;;;;;;8193836;28;20843;-72
2023/05/08 04:04:23;;;;;;;7.65;6.95;;;;;;;;;;8190728;28;20966;-72
2023/05/08 04:08:28;;;;;;;8.48;7.50;;;;;;;;;;8197230;28;20549;-72
2023/05/08 04:12:37;;;;;;;10.38;7.88;;;;;;;;;;8191376;28;20539;-72
2023/05/08 04:16:38;;;;;;;9.43;7.40;;;;;;;;;;8192926;28;20784;-72
2023/05/08 04:20:40;;;;;;;8.18;7.38;;;;;;;;;;8203209;28;20141;-72
2023/05/08 04:24:43;;;;;;;7.95;7.25;;;;;;;;;;8201900;28;20041;-72
2023/05/08 04:28:45;;;;;;;9.37;7.13;;;;;;;;;;8212097;28;20022;-72
2023/05/08 04:32:46;;;;;;;8.93;7.32;;;;;;;;;;8214538;28;20069;-72
2023/05/08 04:36:47;;;;;;;6.95;6.25;;;;;;;;;;8229535;28;20041;-72
2023/05/08 04:40:47;;;;;;;6.43;5.88;;;;;;;;;;8217719;28;20104;-72
2023/05/08 04:44:47;;;;;;;6.78;6.00;;;;;;;;;;8221700;28;21015;-71
2023/05/08 04:48:47;;;;;;;7.38;6.32;;;;;;;;;;8221631;28;20045;-72
2023/05/08 04:52:48;;;;;;;6.80;6.07;;;;;;;;;;8215656;28;20034;-72
2023/05/08 04:56:48;;;;;;;7.00;6.40;;;;;;;;;;8225467;28;20085;-72
2023/05/08 05:00:48;;;;;;;6.65;5.60;;;;;;;;;;8228022;28;20029;-71
2023/05/08 05:04:50;;;;;;;8.07;6.50;;;;;;;;;;8255397;28;20025;-71
2023/05/08 05:08:50;;;;;;;6.60;5.80;;;;;;;;;;8248237;28;20026;-72
2023/05/08 05:12:50;;;;;;;6.78;6.18;;;;;;;;;;8253870;28;20024;-72
2023/05/08 05:16:50;;;;;;;6.43;5.82;;;;;;;;;;8252130;28;20782;-72
2023/05/08 05:20:51;;;;;;;6.47;5.88;;;;;;;;;;8249697;28;20024;-71
2023/05/08 05:24:51;;;;;;;6.32;5.80;;;;;;;;;;8256323;28;20026;-72
2023/05/08 05:28:51;;;;;;;5.75;5.25;;;;;;;;;;8250471;28;20061;-72
2023/05/08 05:32:51;;;;;;;6.40;5.70;;;;;;;;;;8249244;28;20958;-72
2023/05/08 05:36:52;;;;;;;6.28;5.63;;;;;;;;;;8254980;28;20284;-71
2023/05/08 05:40:52;;;;;;;6.78;5.85;;;;;;;;;;8247762;28;20286;-71
2023/05/08 05:44:52;;;;;;;6.65;5.65;;;;;;;;;;8251762;28;20029;-71
2023/05/08 05:48:52;;;;;;;6.83;5.50;;;;;;;;;;8253847;28;20610;-71
2023/05/08 05:52:53;;;;;;;6.20;5.60;;;;;;;;;;8250124;28;20029;-71
2023/05/08 05:56:53;;;;;;;8.02;6.38;;;;;;;;;;8257184;28;20084;-72
2023/05/08 06:00:54;;;;;;;7.38;5.97;;;;;;;;;;8257470;28;20523;-72
2023/05/08 06:04:54;;;;;;;7.15;5.63;;;;;;;;;;8261990;28;20513;-71
2023/05/08 06:08:54;;;;;;;6.70;6.10;;;;;;;;;;8256346;28;20029;-71
2023/05/08 06:12:54;;;;;;;7.05;6.40;;;;;;;;;;8261078;28;20972;-71
2023/05/08 06:16:54;;;;;;;8.63;6.82;;;;;;;;;;8255891;28;20418;-71
2023/05/08 06:20:58;;;;;;;8.93;7.00;;;;;;;;;;8252142;28;20026;-72
2023/05/08 06:24:58;;;;;;;9.55;6.95;;;;;;;;;;8260490;28;20112;-71
2023/05/08 06:28:58;;;;;;;9.15;7.05;;;;;;;;;;8261827;28;20096;-71
2023/05/08 06:32:59;;;;;;;9.27;7.28;;;;;;;;;;8252236;28;20672;-72
2023/05/08 06:36:59;;;;;;;7.35;6.57;;;;;;;;;;8251923;28;20057;-71
2023/05/08 06:40:59;;;;;;;10.15;7.30;;;;;;;;;;8258069;28;20792;-72
2023/05/08 06:44:59;;;;;;;7.77;7.00;;;;;;;;;;8256089;28;20164;-72
2023/05/08 06:49:00;;;;;;;10.32;6.90;;;;;;;;;;8256004;28;20285;-71
2023/05/08 06:53:00;;;;;;;9.20;7.70;;;;;;;;;;8256730;28;20018;-72
2023/05/08 06:57:00;;;;;;;8.98;8.00;;;;;;;;;;8263865;28;20099;-71
2023/05/08 07:01:00;;;;;;;8.23;7.50;;;;;;;;;;8252968;28;20495;-72
2023/05/08 07:05:01;;;;;;;9.73;7.53;;;;;;;;;;8260056;28;20026;-71
2023/05/08 07:09:02;;;;;;;8.60;7.80;;;;;;;;;;8253092;28;21236;-71
2023/05/08 07:13:02;;;;;;;11.97;8.53;;;;;;;;;;8251517;28;20649;-71
2023/05/08 07:17:05;;;;;;;11.13;8.50;;;;;;;;;;8253697;28;20265;-72
2023/05/08 07:21:06;;;;;;;11.68;7.50;;;;;;;;;;8250245;28;20033;-72
2023/05/08 07:25:06;;;;;;;7.27;6.57;;;;;;;;;;8256798;28;20052;-72
2023/05/08 07:29:07;;;;;;;26.48;7.85;;;;;;;;;;8250216;28;20292;-72
2023/05/08 07:33:07;;;;;;;10.55;6.55;;;;;;;;;;8251703;28;20034;-72
2023/05/08 07:37:07;;;;;;;35.10;7.32;;;;;;;;;;8252693;28;20030;-71
2023/05/08 07:41:08;;;;;;;7.00;6.40;;;;;;;;;;8258162;28;20108;-71
2023/05/08 07:45:09;;;;;;;6.70;6.10;;;;;;;;;;8250920;28;20084;-71
2023/05/08 07:49:09;;;;;;;33.28;6.40;;;;;;;;;;8255244;28;20112;-72
2023/05/08 07:53:09;;;;;;;6.70;6.07;;;;;;;;;;8250678;28;20064;-71
2023/05/08 07:57:10;;;;;;;23.33;6.43;;;;;;;;;;8256067;28;20033;-72
2023/05/08 08:01:10;;;;;;;20.63;6.22;;;;;;;;;;8244354;28;20149;-72
2023/05/08 08:05:10;;;;;;;6.93;6.23;;;;;;;;;;8228207;28;20030;-71
2023/05/08 08:09:11;;;;;;;14.50;6.27;;;;;;;;;;8218591;28;20277;-71
2023/05/08 08:13:11;;;;;;;12.20;7.43;;;;;;;;;;8219707;28;20041;-72
2023/05/08 08:17:11;;;;;;;27.27;8.63;;;;;;;;;;8227632;28;20038;-71
2023/05/08 08:21:11;;;;;;;24.55;8.10;;;;;;;;;;8224092;28;20023;-72
2023/05/08 08:25:12;;;;;;;15.80;7.50;;;;;;;;;;8217933;28;20026;-71
2023/05/08 08:29:12;;;;;;;9.50;7.20;;;;;;;;;;8217644;28;20113;-72
2023/05/08 08:33:12;;;;;;;14.00;7.60;;;;;;;;;;8227969;28;20265;-71
2023/05/08 08:37:12;;;;;;;32.53;7.80;;;;;;;;;;8223075;28;20575;-71
2023/05/08 08:41:14;;;;;;;14.02;7.63;;;;;;;;;;8217665;28;20037;-72
2023/05/08 08:45:14;;;;;;;11.93;7.30;;;;;;;;;;8218027;28;20441;-71
2023/05/08 08:49:17;;;;;;;13.52;7.32;;;;;;;;;;8215974;28;20093;-72
2023/05/08 08:53:17;;;;;;;16.77;7.22;;;;;;;;;;8224599;28;20025;-71
2023/05/08 08:57:18;;;;;;;7.85;7.15;;;;;;;;;;8220534;28;20022;-71
2023/05/08 09:01:19;;;;;;;7.53;6.72;;;;;;;;;;8216514;28;20045;-72
2023/05/08 09:05:20;;;;;;;11.73;7.70;;;;;;;;;;8218656;28;20030;-71
2023/05/08 09:09:21;;;;;;;8.77;7.88;;;;;;;;;;8217480;28;20258;-72
2023/05/08 09:13:22;;;;;;;13.82;8.25;;;;;;;;;;8228589;28;20096;-71
2023/05/08 09:17:22;;;;;;;8.48;7.13;;;;;;;;;;8226399;28;20605;-71
2023/05/08 09:21:22;;;;;;;10.73;7.47;;;;;;;;;;8217097;28;20026;-71
2023/05/08 09:25:22;;;;;;;7.47;6.60;;;;;;;;;;8232111;28;20026;-71
2023/05/08 09:29:22;;;;;;;7.13;6.43;;;;;;;;;;8227400;28;20148;-72
2023/05/08 09:33:24;;;;;;;7.13;6.43;;;;;;;;;;8234388;28;20038;-71
2023/05/08 09:37:25;;;;;;;6.80;5.97;;;;;;;;;;8223380;28;20061;-72
2023/05/08 09:41:25;;;;;;;6.10;5.53;;;;;;;;;;8230777;28;20764;-71
2023/05/08 09:45:27;;;;;;;5.82;5.32;;;;;;;;;;8224118;28;20045;-71
2023/05/08 09:49:27;;;;;;;6.65;5.65;;;;;;;;;;8221931;28;20018;-71
2023/05/08 09:53:31;;;;;;;6.03;5.10;;;;;;;;;;8221683;28;20660;-71
2023/05/08 09:57:31;;;;;;;;;;;;;;;;;;8222156;28;21061;-71
2023/05/08 10:01:32;;;;;;;5.47;4.97;;;;;;;;;;8221833;28;19929;-72
2023/05/08 10:05:34;;;;;;;5.00;4.50;;;;;;;;;;8222301;28;20030;-71
2023/05/08 10:09:35;;;;;;;5.35;4.80;;;;;;;;;;8198740;28;20033;-71
2023/05/08 10:13:35;;;;;;;4.50;4.10;;;;;;;;;;8227549;28;20022;-72
2023/05/08 10:17:40;;;;;;;4.60;4.20;;;;;;;;;;8221488;28;21104;-72
2023/05/08 10:21:43;;;;;;;5.82;5.20;;;;;;;;;;8222247;28;20466;-72
2023/05/08 10:25:45;;;;;;;5.57;4.75;;;;;;;;;;8221605;28;20039;-72
2023/05/08 10:29:52;;;;;;;5.53;5.03;;;;;;;;;;8220607;28;20766;-72
2023/05/08 10:33:54;;;;;;;6.30;5.75;;;;;;;;;;8222015;28;20049;-71
2023/05/08 10:37:55;;;;;;;8.18;6.65;;;;;;;;;;8231150;28;20030;-72
2023/05/08 10:41:55;;;;;;;11.37;7.40;;;;;;;;;;8221325;28;20030;-72
2023/05/08 10:45:56;;;;;;;9.30;8.23;;;;;;;;;;8217320;28;21116;-71
2023/05/08 10:49:56;;;;;;;10.65;8.52;;;;;;;;;;8221937;28;20289;-71
2023/05/08 10:54:16;;;;;;;10.45;9.15;;;;;;;;;;8228612;28;20018;-71
2023/05/08 10:58:30;;;;;;;9.68;8.68;;;;;;;;;;8233659;28;20026;-72
2023/05/08 11:02:35;;;;;;;9.38;8.48;;;;;;;;;;8221332;28;20049;-72
2023/05/08 11:06:41;;;;;;;9.18;8.20;;;;;;;;;;8230553;28;20066;-72
2023/05/08 11:10:43;;;;;;;8.27;7.57;;;;;;;;;;8218833;28;20101;-71
2023/05/08 11:14:52;;;;;;;8.00;7.22;;;;;;;;;;8218109;28;20612;-72
2023/05/08 11:19:12;;;;;;;8.32;7.45;;;;;;;;;;8220105;28;20030;-72
2023/05/08 11:23:21;;;;;;;7.75;6.93;;;;;;;;;;8221198;28;20572;-72
2023/05/08 11:27:32;;;;;;;11.80;7.75;;;;;;;;;;8219345;28;20693;-73
2023/05/08 11:31:51;;;;;;;8.98;8.02;;;;;;;;;;8215091;28;20851;-72
2023/05/08 11:35:55;;;;;;;10.73;8.45;;;;;;;;;;8217979;28;20030;-72
2023/05/08 11:40:16;;;;;;;10.73;9.55;;;;;;;;;;8218685;28;20058;-72
2023/05/08 11:44:19;;;;;;;10.15;9.15;;;;;;;;;;8212455;28;20040;-72
2023/05/08 11:48:19;;;;;;;9.98;8.90;;;;;;;;;;8215056;28;20049;-73
2023/05/08 11:52:19;;;;;;;9.93;8.75;;;;;;;;;;8218354;28;20325;-73
2023/05/08 11:56:20;;;;;;;10.07;9.00;;;;;;;;;;8217832;28;20806;-72
2023/05/08 12:00:20;;;;;;;11.20;9.50;;;;;;;;;;8213281;28;20038;-72
2023/05/08 12:04:21;;;;;;;10.57;9.48;;;;;;;;;;8219561;28;20030;-72
2023/05/08 12:08:21;;;;;;;14.65;10.93;;;;;;;;;;8214139;28;20045;-73
2023/05/08 12:12:21;;;;;;;12.57;10.50;;;;;;;;;;8210382;28;20026;-72
2023/05/08 12:16:22;;;;;;;12.55;10.43;;;;;;;;;;8219169;28;20042;-72
2023/05/08 12:20:24;;;;;;;15.60;12.07;;;;;;;;;;8214969;28;20041;-72
2023/05/08 12:24:25;;;;;;;13.68;12.27;;;;;;;;;;8212575;28;20490;-73
2023/05/08 12:28:26;;;;;;;17.05;13.25;;;;;;;;;;8194361;28;20073;-72
2023/05/08 12:32:26;;;;;;;13.35;11.13;;;;;;;;;;8212955;28;20050;-73
2023/05/08 12:36:27;;;;;;;13.75;12.18;;;;;;;;;;8216389;28;20030;-72
2023/05/08 12:40:31;;;;;;;15.73;12.50;;;;;;;;;;8214747;28;20097;-72
2023/05/08 12:44:31;;;;;;;15.02;12.32;;;;;;;;;;8216366;28;20845;-72
2023/05/08 12:48:31;;;;;;;17.23;12.20;;;;;;;;;;8209898;28;20112;-73
2023/05/08 12:52:31;;;;;;;13.43;11.23;;;;;;;;;;8225582;28;20096;-73
2023/05/08 12:56:32;;;;;;;13.20;11.68;;;;;;;;;;8206910;28;20026;-73
2023/05/08 13:00:36;;;;;;;14.80;11.73;;;;;;;;;;8210434;28;20066;-72
2023/05/08 13:04:37;;;;;;;13.98;11.13;;;;;;;;;;8214468;28;20101;-72
2023/05/08 13:08:38;;;;;;;12.70;11.40;;;;;;;;;;8211823;28;20022;-72
2023/05/08 13:12:38;;;;;;;13.57;10.57;;;;;;;;;;8216555;28;20055;-73
2023/05/08 13:16:42;;;;;;;14.75;10.82;;;;;;;;;;8215014;28;20620;-73
2023/05/08 13:20:42;;;;;;;11.85;10.65;;;;;;;;;;8215773;28;20038;-73
2023/05/08 13:24:43;;;;;;;14.20;10.85;;;;;;;;;;8220263;28;20619;-73
2023/05/08 13:28:43;;;;;;;13.75;10.50;;;;;;;;;;8216839;28;20181;-73
2023/05/08 13:32:43;;;;;;;12.13;10.98;;;;;;;;;;8218083;28;20069;-73
2023/05/08 13:36:43;;;;;;;15.15;10.73;;;;;;;;;;8214917;28;20759;-72
2023/05/08 13:40:44;;;;;;;12.00;10.55;;;;;;;;;;8215076;28;20034;-72
2023/05/08 13:44:44;;;;;;;11.95;10.75;;;;;;;;;;8217033;28;20034;-72
2023/05/08 13:48:45;;;;;;;12.05;10.85;;;;;;;;;;8219044;28;20379;-72
2023/05/08 13:52:45;;;;;;;16.27;12.03;;;;;;;;;;8223421;28;20033;-72
2023/05/08 13:56:47;;;;;;;13.07;11.00;;;;;;;;;;8224169;28;20104;-73
2023/05/08 14:00:48;;;;;;;13.25;11.85;;;;;;;;;;8211687;28;20156;-73
2023/05/08 14:04:48;;;;;;;12.82;11.15;;;;;;;;;;8219175;28;20022;-73
2023/05/08 14:08:49;;;;;;;13.30;12.00;;;;;;;;;;8207107;28;20114;-73
2023/05/08 14:12:49;;;;;;;15.35;11.20;;;;;;;;;;8214649;28;20266;-74
2023/05/08 14:16:50;;;;;;;14.07;12.27;;;;;;;;;;8204214;28;20043;-74
2023/05/08 14:20:50;;;;;;;14.45;12.50;;;;;;;;;;8216615;28;20785;-74
2023/05/08 14:24:51;;;;;;;13.02;11.73;;;;;;;;;;8220711;28;20567;-74
2023/05/08 14:28:52;;;;;;;12.55;11.32;;;;;;;;;;8216198;28;20022;-74
2023/05/08 14:32:52;;;;;;;13.70;11.95;;;;;;;;;;8221736;28;20085;-74
2023/05/08 14:36:52;;;;;;;12.50;11.27;;;;;;;;;;8222949;28;20069;-74
2023/05/08 14:40:53;;;;;;;12.25;10.95;;;;;;;;;;8219873;28;20038;-74
2023/05/08 14:44:54;;;;;;;12.52;10.48;;;;;;;;;;8215590;28;20423;-74
2023/05/08 14:48:54;;;;;;;12.30;10.38;;;;;;;;;;8216950;28;20141;-74
2023/05/08 14:52:55;;;;;;;13.95;10.88;;;;;;;;;;8220843;28;21073;-74
2023/05/08 14:56:55;;;;;;;12.53;9.90;;;;;;;;;;8221166;28;20029;-74
2023/05/08 15:00:55;;;;;;;9.90;8.90;;;;;;;;;;8212713;28;20969;-71
2023/05/08 15:04:55;;;;;;;11.77;9.32;;;;;;;;;;8215348;28;20026;-71
2023/05/08 15:08:55;;;;;;;10.00;8.98;;;;;;;;;;8215659;28;20030;-73
2023/05/08 15:12:56;;;;;;;10.93;9.27;;;;;;;;;;8217319;28;20030;-73
2023/05/08 15:16:56;;;;;;;10.15;9.15;;;;;;;;;;8216319;28;20034;-74
2023/05/08 15:20:58;;;;;;;9.02;8.07;;;;;;;;;;8213378;28;20133;-73
2023/05/08 15:25:01;;;;;;;9.25;8.35;;;;;;;;;;8215839;28;20041;-74
2023/05/08 15:29:01;;;;;;;10.45;9.45;;;;;;;;;;8214701;28;20133;-73
2023/05/08 15:33:01;;;;;;;9.85;8.27;;;;;;;;;;8215830;28;20062;-73
2023/05/08 15:37:01;;;;;;;8.30;7.43;;;;;;;;;;8219967;28;20041;-73
2023/05/08 15:41:02;;;;;;;9.33;7.97;;;;;;;;;;8215090;28;20037;-74
2023/05/08 15:45:02;;;;;;;12.75;8.90;;;;;;;;;;8215319;28;20092;-73
2023/05/08 15:49:02;;;;;;;12.48;8.20;;;;;;;;;;8212363;28;20038;-73
2023/05/08 15:53:03;;;;;;;9.57;7.55;;;;;;;;;;8216456;28;20041;-73
2023/05/08 15:57:04;;;;;;;9.88;8.88;;;;;;;;;;8219712;28;20034;-73
2023/05/08 16:01:05;;;;;;;10.50;9.25;;;;;;;;;;8211864;28;20045;-74
2023/05/08 16:05:05;;;;;;;12.93;7.87;;;;;;;;;;8213996;28;20073;-74
2023/05/08 16:09:05;;;;;;;9.52;7.90;;;;;;;;;;8218362;28;20293;-74
2023/05/08 16:13:05;;;;;;;9.50;8.50;;;;;;;;;;8222856;28;20106;-73
2023/05/08 16:17:06;;;;;;;8.02;7.32;;;;;;;;;;8217632;28;20074;-73
2023/05/08 16:21:09;;;;;;;8.20;7.40;;;;;;;;;;8221771;28;20730;-73
2023/05/08 16:25:10;;;;;;;9.10;8.23;;;;;;;;;;8225135;28;20149;-72
2023/05/08 16:29:10;;;;;;;8.52;7.68;;;;;;;;;;8212873;28;20059;-72
2023/05/08 16:33:11;;;;;;;9.13;8.23;;;;;;;;;;8220374;28;20034;-72
2023/05/08 16:37:11;;;;;;;10.23;8.57;;;;;;;;;;8220703;28;21075;-72
2023/05/08 16:41:12;;;;;;;9.15;8.25;;;;;;;;;;8219414;28;20143;-73
2023/05/08 16:45:12;;;;;;;8.00;7.20;;;;;;;;;;8222301;28;20192;-73
2023/05/08 16:49:12;;;;;;;8.63;7.68;;;;;;;;;;8219874;28;20828;-73
2023/05/08 16:53:13;;;;;;;8.57;7.70;;;;;;;;;;8221214;28;20261;-73
2023/05/08 16:57:13;;;;;;;8.60;7.80;;;;;;;;;;8220672;28;20034;-73
2023/05/08 17:01:13;;;;;;;9.13;8.07;;;;;;;;;;8218935;28;20105;-73
2023/05/08 17:05:14;;;;;;;7.95;7.03;;;;;;;;;;8221291;28;20544;-73
2023/05/08 17:09:15;;;;;;;7.53;6.73;;;;;;;;;;8208237;28;20034;-73
2023/05/08 17:13:15;;;;;;;7.65;6.95;;;;;;;;;;8220501;28;20281;-73
2023/05/08 17:17:15;;;;;;;7.53;6.47;;;;;;;;;;8219575;28;20042;-73
2023/05/08 17:21:16;;;;;;;7.37;6.67;;;;;;;;;;8218256;28;20026;-72
2023/05/08 17:25:16;;;;;;;7.20;6.60;;;;;;;;;;8219329;28;20288;-72
2023/05/08 17:29:16;;;;;;;8.00;7.30;;;;;;;;;;8218773;28;20034;-72
2023/05/08 17:33:17;;;;;;;7.97;7.17;;;;;;;;;;8220234;28;20328;-72
2023/05/08 17:37:17;;;;;;;6.18;5.55;;;;;;;;;;8219921;28;20281;-73
2023/05/08 17:41:17;;;;;;;7.25;6.55;;;;;;;;;;8217684;28;20702;-73
2023/05/08 17:45:17;;;;;;;8.65;6.60;;;;;;;;;;8214805;28;20064;-71
2023/05/08 17:49:18;;;;;;;6.70;6.10;;;;;;;;;;8217814;28;20022;-73
2023/05/08 17:53:19;;;;;;;8.38;6.70;;;;;;;;;;8223173;28;20907;-73
2023/05/08 17:57:19;;;;;;;7.18;6.47;;;;;;;;;;8218815;28;20054;-73
2023/05/08 18:01:19;;;;;;;10.10;6.80;;;;;;;;;;8214870;28;20034;-73
2023/05/08 18:05:20;;;;;;;7.07;6.47;;;;;;;;;;8216845;28;20076;-74
2023/05/08 18:09:20;;;;;;;6.77;6.07;;;;;;;;;;8214426;28;20137;-73
2023/05/08 18:13:20;;;;;;;6.83;6.23;;;;;;;;;;8219214;28;20273;-73
2023/05/08 18:17:21;;;;;;;6.78;6.10;;;;;;;;;;8221195;28;20039;-74
2023/05/08 18:21:21;;;;;;;6.00;5.50;;;;;;;;;;8217739;28;20026;-73
2023/05/08 18:25:21;;;;;;;11.15;6.65;;;;;;;;;;8218185;28;20753;-73
2023/05/08 18:29:21;;;;;;;6.65;5.97;;;;;;;;;;8217696;28;20037;-73
2023/05/08 18:33:22;;;;;;;7.47;6.72;;;;;;;;;;8223443;28;20042;-73
2023/05/08 18:37:22;;;;;;;6.28;5.78;;;;;;;;;;8222482;28;20041;-73
2023/05/08 18:41:23;;;;;;;6.53;5.90;;;;;;;;;;8214961;28;20026;-73
2023/05/08 18:45:23;;;;;;;6.85;6.05;;;;;;;;;;8218173;28;20030;-73
2023/05/08 18:49:23;;;;;;;8.68;6.90;;;;;;;;;;8246164;28;20125;-73
2023/05/08 18:53:23;;;;;;;7.07;6.47;;;;;;;;;;8251023;28;20022;-73
2023/05/08 18:57:23;;;;;;;6.57;5.97;;;;;;;;;;8255765;28;20053;-74
2023/05/08 19:01:24;;;;;;;6.82;6.22;;;;;;;;;;8250144;28;20157;-74
2023/05/08 19:05:24;;;;;;;8.80;6.07;;;;;;;;;;8246759;28;20065;-74
2023/05/08 19:09:24;;;;;;;6.67;5.90;;;;;;;;;;8248948;28;20030;-74
2023/05/08 19:13:24;;;;;;;7.90;7.10;;;;;;;;;;8249499;28;20042;-74
2023/05/08 19:17:25;;;;;;;7.78;7.07;;;;;;;;;;8246591;28;20034;-73
2023/05/08 19:21:25;;;;;;;6.77;6.13;;;;;;;;;;8248313;28;20030;-74
2023/05/08 19:25:25;;;;;;;6.15;5.57;;;;;;;;;;8251885;28;20080;-73
2023/05/08 19:29:25;;;;;;;7.75;6.55;;;;;;;;;;8248384;28;20032;-73
2023/05/08 19:33:25;;;;;;;8.88;7.40;;;;;;;;;;8251941;28;20120;-74
2023/05/08 19:37:26;;;;;;;6.38;5.82;;;;;;;;;;8249373;28;20188;-74
2023/05/08 19:41:26;;;;;;;8.65;7.75;;;;;;;;;;8250652;28;20498;-74
2023/05/08 19:45:26;;;;;;;7.53;6.78;;;;;;;;;;8244970;28;20034;-72
2023/05/08 19:49:26;;;;;;;7.68;6.97;;;;;;;;;;8246188;28;20122;-72
2023/05/08 19:53:27;;;;;;;6.95;6.18;;;;;;;;;;8246686;28;21073;-72
2023/05/08 19:57:27;;;;;;;6.57;5.97;;;;;;;;;;8247318;28;20076;-72
2023/05/08 20:01:27;;;;;;;6.73;6.00;;;;;;;;;;8231450;28;20877;-71
2023/05/08 20:05:27;;;;;;;6.53;5.40;;;;;;;;;;8212073;28;20277;-72
2023/05/08 20:09:27;;;;;;;8.15;6.00;;;;;;;;;;8214394;28;20027;-72
2023/05/08 20:13:28;;;;;;;8.02;7.22;;;;;;;;;;8214024;28;20026;-72
2023/05/08 20:17:28;;;;;;;8.40;7.60;;;;;;;;;;8214020;28;20054;-72
2023/05/08 20:21:31;;;;;;;6.93;6.22;;;;;;;;;;8228218;28;20379;-72
2023/05/08 20:25:31;;;;;;;6.18;5.30;;;;;;;;;;8208600;28;20038;-73
2023/05/08 20:29:31;;;;;;;6.25;5.65;;;;;;;;;;8212937;28;20471;-73
2023/05/08 20:33:31;;;;;;;5.50;5.00;;;;;;;;;;8214742;28;20887;-73
2023/05/08 20:37:31;;;;;;;9.90;8.80;;;;;;;;;;8216042;28;20046;-73
2023/05/08 20:41:32;;;;;;;10.73;7.20;;;;;;;;;;8220238;28;20022;-72
2023/05/08 20:45:32;;;;;;;8.67;7.43;;;;;;;;;;8223474;28;20073;-73
2023/05/08 20:49:32;;;;;;;7.38;6.57;;;;;;;;;;8220352;28;20053;-73
2023/05/08 20:53:32;;;;;;;7.13;6.43;;;;;;;;;;8215127;28;20031;-72
2023/05/08 20:57:32;;;;;;;9.70;8.70;;;;;;;;;;8215074;28;20026;-73
2023/05/08 21:01:33;;;;;;;9.15;7.88;;;;;;;;;;8215195;28;20511;-73
2023/05/08 21:05:33;;;;;;;7.33;6.63;;;;;;;;;;8218772;28;20826;-73
2023/05/08 21:09:33;;;;;;;7.75;6.85;;;;;;;;;;8219181;28;20289;-73
2023/05/08 21:13:33;;;;;;;7.87;6.93;;;;;;;;;;8222954;28;20015;-72
2023/05/08 21:17:34;;;;;;;7.97;7.03;;;;;;;;;;8214487;28;20122;-73
2023/05/08 21:21:34;;;;;;;7.97;7.18;;;;;;;;;;8217197;28;20257;-72
2023/05/08 21:25:35;;;;;;;6.82;6.13;;;;;;;;;;8217325;28;20073;-73
2023/05/08 21:29:36;;;;;;;8.73;7.18;;;;;;;;;;8225755;28;20019;-73
2023/05/08 21:33:36;;;;;;;10.90;8.50;;;;;;;;;;8222381;28;20902;-73
2023/05/08 21:37:36;;;;;;;12.35;9.00;;;;;;;;;;8221996;28;20513;-73
2023/05/08 21:41:37;;;;;;;14.98;10.27;;;;;;;;;;8231801;28;20084;-73
2023/05/08 21:45:37;;;;;;;19.65;13.52;;;;;;;;;;8224210;28;20038;-73
2023/05/08 21:49:37;;;;;;;25.70;15.88;;;;;;;;;;8224320;28;20121;-73
2023/05/08 21:53:37;;;;;;;18.95;12.75;;;;;;;;;;8219324;28;20034;-73
2023/05/08 21:57:37;;;;;;;15.80;11.55;;;;;;;;;;8219451;28;20034;-73
2023/05/08 22:01:38;;;;;;;44.00;21.67;;;;;;;;;;8207462;28;20034;-73
2023/05/08 22:05:38;;;;;;;31.52;18.27;;;;;;;;;;8222040;28;20030;-73
2023/05/08 22:09:38;;;;;;;34.95;19.17;;;;;;;;;;8218123;28;20042;-73
2023/05/08 22:13:38;;;;;;;42.17;22.02;;;;;;;;;;8221097;28;20026;-73
2023/05/08 22:17:39;;;;;;;42.35;21.90;;;;;;;;;;8228904;28;20077;-72
2023/05/08 22:21:39;;;;;;;31.10;18.50;;;;;;;;;;8221069;28;20420;-72
2023/05/08 22:25:40;;;;;;;24.90;15.45;;;;;;;;;;8219174;28;20026;-72
2023/05/08 22:29:40;;;;;;;19.40;12.67;;;;;;;;;;8217383;28;20042;-73
2023/05/08 22:33:40;;;;;;;13.77;8.75;;;;;;;;;;8218286;28;21047;-73
2023/05/08 22:37:40;;;;;;;10.02;8.32;;;;;;;;;;8207597;28;20025;-73
2023/05/08 22:41:41;;;;;;;10.70;9.00;;;;;;;;;;8220089;28;20037;-73
2023/05/08 22:45:41;;;;;;;10.03;7.77;;;;;;;;;;8218759;28;20288;-73
2023/05/08 22:49:41;;;;;;;8.93;7.63;;;;;;;;;;8217892;28;20022;-73
2023/05/08 22:53:41;;;;;;;8.47;7.63;;;;;;;;;;8216823;28;20037;-73
2023/05/08 22:57:41;;;;;;;9.15;8.13;;;;;;;;;;8220355;28;20129;-73
2023/05/08 23:01:42;;;;;;;9.38;8.38;;;;;;;;;;8218554;28;20038;-73
2023/05/08 23:05:42;;;;;;;10.38;9.30;;;;;;;;;;8225910;28;20026;-73
2023/05/08 23:09:42;;;;;;;11.00;9.80;;;;;;;;;;8217781;28;20132;-73
2023/05/08 23:13:42;;;;;;;11.52;10.43;;;;;;;;;;8222955;28;20033;-73
2023/05/08 23:17:43;;;;;;;12.75;10.82;;;;;;;;;;8219178;28;20026;-73
2023/05/08 23:21:43;;;;;;;14.00;10.43;;;;;;;;;;8218787;28;20023;-73
2023/05/08 23:25:43;;;;;;;13.52;9.70;;;;;;;;;;8220378;28;20030;-73
2023/05/08 23:29:43;;;;;;;12.60;11.25;;;;;;;;;;8219006;28;20030;-72
2023/05/08 23:33:43;;;;;;;11.43;10.32;;;;;;;;;;8219313;28;20037;-72
2023/05/08 23:37:44;;;;;;;12.30;10.98;;;;;;;;;;8217708;28;20026;-72
2023/05/08 23:41:44;;;;;;;11.37;10.17;;;;;;;;;;8223140;28;20125;-72
2023/05/08 23:45:44;;;;;;;15.97;10.67;;;;;;;;;;8215626;28;20043;-74
2023/05/08 23:49:44;;;;;;;12.95;11.43;;;;;;;;;;8216163;28;20027;-73
2023/05/08 23:53:44;;;;;;;13.00;10.75;;;;;;;;;;8218390;28;20061;-72